Time;durP1;ratioP1;P1;durP2;ratioP2;P2;SDS_P1;SDS_P2;PMS_P1;PMS_P2;Temp;Humidity;BMP_temperature;BMP_pressure;BME280_temperature;BME280_humidity;BME280_pressure;Samples;Min_cycle;Max_cycle;Signal;HPM_P1;HPM_P2
2022/01/17 00:02:00;;;;;;;22.13;13.53;;;;;;;2.41;100.00;96514.94;5070968;28;20239;-68
2022/01/17 00:04:25;;;;;;;25.17;14.53;;;;;;;2.38;100.00;96520.97;5070749;28;20201;-54
2022/01/17 00:06:51;;;;;;;24.37;14.40;;;;;;;2.39;100.00;96511.78;5070966;28;20209;-56
2022/01/17 00:09:18;;;;;;;21.50;14.37;;;;;;;2.38;100.00;96516.38;5070773;28;20206;-55
2022/01/17 00:11:47;;;;;;;21.73;13.20;;;;;;;2.37;100.00;96509.41;5070688;28;20207;-55
2022/01/17 00:14:17;;;;;;;22.33;13.50;;;;;;;2.35;100.00;96503.56;5070490;28;20216;-53
2022/01/17 00:16:49;;;;;;;23.23;13.13;;;;;;;2.37;100.00;96509.41;5070353;28;20239;-54
2022/01/17 00:21:50;;;;;;;22.90;13.47;;;;;;;2.40;100.00;96506.06;5055106;28;20212;-58
2022/01/17 00:24:18;;;;;;;22.13;12.73;;;;;;;2.42;100.00;96501.16;5070711;28;20756;-58
2022/01/17 00:26:44;;;;;;;20.03;13.20;;;;;;;2.40;100.00;96506.06;5070588;28;20200;-58
2022/01/17 00:29:09;;;;;;;22.30;13.47;;;;;;;2.41;100.00;96502.25;5070376;28;20618;-58
2022/01/17 00:31:34;;;;;;;21.17;12.80;;;;;;;2.45;100.00;96511.25;5070611;28;20227;-58
2022/01/17 00:34:00;;;;;;;21.70;12.83;;;;;;;2.46;100.00;96512.88;5070443;28;20194;-59
2022/01/17 00:36:25;;;;;;;23.70;13.53;;;;;;;2.47;100.00;96509.03;5069917;28;20324;-57
2022/01/17 00:38:50;;;;;;;21.10;12.60;;;;;;;2.54;100.00;96525.50;5070707;28;20197;-57
2022/01/17 00:41:15;;;;;;;23.67;13.37;;;;;;;2.52;100.00;96522.31;5070720;28;20198;-68
2022/01/17 00:43:41;;;;;;;23.13;13.13;;;;;;;2.52;100.00;96522.31;5070315;28;20193;-68
2022/01/17 00:46:06;;;;;;;21.07;12.87;;;;;;;2.54;100.00;96530.09;5070103;28;20198;-68
2022/01/17 00:48:32;;;;;;;21.73;12.97;;;;;;;2.54;100.00;96520.13;5054510;28;20255;-69
2022/01/17 00:50:57;;;;;;;18.97;11.40;;;;;;;2.53;100.00;96521.25;5070846;28;20186;-68
2022/01/17 00:53:22;;;;;;;21.87;13.40;;;;;;;2.54;100.00;96519.31;5069899;28;20194;-68
2022/01/17 00:55:47;;;;;;;19.23;12.03;;;;;;;2.59;100.00;96522.63;5070041;28;20285;-58
2022/01/17 00:58:13;;;;;;;21.30;12.00;;;;;;;2.56;100.00;96523.28;5070202;28;20220;-45
2022/01/17 01:00:41;;;;;;;20.50;12.20;;;;;;;2.60;100.00;96524.22;5070359;28;20189;-49
2022/01/17 01:03:07;;;;;;;19.33;12.37;;;;;;;2.63;100.00;96534.34;5070249;28;20599;-47
2022/01/17 01:05:33;;;;;;;20.17;12.27;;;;;;;2.61;100.00;96536.56;5069329;28;20186;-47
2022/01/17 01:07:58;;;;;;;17.97;11.43;;;;;;;2.60;100.00;96529.59;5052943;28;20205;-46
2022/01/17 01:10:24;;;;;;;18.30;11.43;;;;;;;2.61;100.00;96536.56;5069858;28;20190;-48
2022/01/17 01:12:50;;;;;;;19.97;12.47;;;;;;;2.61;100.00;96541.16;5070295;28;20197;-48
2022/01/17 01:18:14;;;;;;;18.63;11.67;;;;;;;2.62;100.00;96542.78;5054215;28;20220;-59
2022/01/17 01:28:35;;;;;;;17.47;10.67;;;;;;;2.71;100.00;96555.09;5054235;28;20293;-58
2022/01/17 01:31:03;;;;;;;18.97;10.93;;;;;;;2.68;100.00;96547.66;5053767;28;20288;-58
2022/01/17 01:33:33;;;;;;;18.10;11.03;;;;;;;2.69;100.00;96549.22;5069418;28;20212;-67
2022/01/17 01:36:07;;;;;;;16.13;10.30;;;;;;;2.65;100.00;96550.19;5070192;28;20303;-59
2022/01/17 01:38:33;;;;;;;18.17;11.03;;;;;;;2.62;100.00;96546.25;5069825;28;20207;-60
2022/01/17 01:40:59;;;;;;;17.00;10.43;;;;;;;2.65;100.00;96559.06;5069199;28;20288;-59
2022/01/17 01:43:24;;;;;;;14.13;9.37;;;;;;;2.72;100.00;96553.97;5069365;28;20212;-59
2022/01/17 01:45:51;;;;;;;17.23;10.27;;;;;;;2.70;100.00;96558.88;5069765;28;20193;-59
2022/01/17 01:48:19;;;;;;;16.17;9.67;;;;;;;2.67;100.00;96559.56;5069299;28;20269;-60
2022/01/17 01:50:45;;;;;;;13.50;9.33;;;;;;;2.68;100.00;96555.72;5069263;28;20178;-65
2022/01/17 01:53:10;;;;;;;13.93;8.93;;;;;;;2.67;100.00;96543.38;5069574;28;20190;-54
2022/01/17 01:55:36;;;;;;;14.50;9.10;;;;;;;2.64;100.00;96540.53;5069577;28;20265;-58
2022/01/17 01:58:01;;;;;;;14.47;8.53;;;;;;;2.62;100.00;96531.97;5069189;28;20206;-58
2022/01/17 02:00:27;;;;;;;13.70;8.77;;;;;;;2.61;100.00;96523.09;5068896;28;20194;-57
2022/01/17 02:02:52;;;;;;;13.87;9.10;;;;;;;2.60;100.00;96515.34;5069414;28;20201;-58
2022/01/17 02:05:17;;;;;;;13.57;7.90;;;;;;;2.64;100.00;96514.38;5069069;28;20203;-58
2022/01/17 02:07:45;;;;;;;12.50;7.93;;;;;;;2.62;100.00;96505.81;5068846;28;20288;-57
2022/01/17 02:10:10;;;;;;;13.00;8.10;;;;;;;2.63;100.00;96510.06;5069380;28;20223;-59
2022/01/17 02:12:36;;;;;;;12.63;7.67;;;;;;;2.69;100.00;96511.47;5069002;28;20213;-47
2022/01/17 02:15:03;;;;;;;11.03;7.53;;;;;;;2.66;100.00;96501.34;5068938;28;20200;-47
2022/01/17 02:17:30;;;;;;;11.07;7.10;;;;;;;2.65;100.00;96505.16;5070060;28;20244;-46
2022/01/17 02:20:04;;;;;;;9.50;6.23;;;;;;;2.65;100.00;96498.97;5072167;28;20198;-46
2022/01/17 02:22:30;;;;;;;12.17;7.57;;;;;;;2.68;100.00;96499.13;5072116;28;20200;-50
2022/01/17 02:24:56;;;;;;;9.37;6.83;;;;;;;2.67;100.00;96505.63;5072272;28;20260;-46
2022/01/17 02:27:21;;;;;;;14.53;7.57;;;;;;;2.67;100.00;96504.84;5072783;28;20247;-68
2022/01/17 02:29:47;;;;;;;11.17;6.73;;;;;;;2.63;100.00;96499.28;5072123;28;20290;-59
2022/01/17 02:32:12;;;;;;;12.83;7.67;;;;;;;2.63;100.00;96504.69;5072529;28;20198;-60
2022/01/17 02:34:42;;;;;;;11.80;6.53;;;;;;;2.65;100.00;96502.47;5072242;28;20189;-59
2022/01/17 02:37:10;;;;;;;10.30;6.67;;;;;;;2.71;100.00;96509.25;5071925;28;20213;-59
2022/01/17 02:39:35;;;;;;;10.67;6.70;;;;;;;2.67;100.00;96508.34;5072060;28;20200;-59
2022/01/17 02:42:02;;;;;;;10.73;6.33;;;;;;;2.67;100.00;96508.34;5072045;28;20300;-59
2022/01/17 02:44:28;;;;;;;9.47;6.27;;;;;;;2.70;100.00;96507.66;5071758;28;20285;-59
2022/01/17 02:46:53;;;;;;;10.60;6.30;;;;;;;2.66;100.00;96501.34;5072505;28;20240;-58
2022/01/17 02:49:18;;;;;;;9.97;6.20;;;;;;;2.72;100.00;96499.25;5072595;28;20188;-57
2022/01/17 02:51:48;;;;;;;10.03;6.47;;;;;;;2.72;100.00;96494.66;5072129;28;20236;-57
2022/01/17 02:54:13;;;;;;;9.97;6.17;;;;;;;2.72;100.00;96500.03;5072271;28;20287;-58
2022/01/17 02:56:39;;;;;;;9.77;6.40;;;;;;;2.72;100.00;96491.97;5071897;28;20300;-57
2022/01/17 02:59:04;;;;;;;9.77;6.57;;;;;;;2.68;100.00;96480.25;5071652;28;20247;-57
2022/01/17 03:01:30;;;;;;;10.37;7.10;;;;;;;2.72;100.00;96478.47;5071808;28;20206;-56
2022/01/17 03:03:57;;;;;;;10.43;5.97;;;;;;;2.73;100.00;96463.88;5071734;28;20203;-59
2022/01/17 03:06:22;;;;;;;10.33;6.70;;;;;;;2.71;100.00;96460.72;5071619;28;20208;-58
2022/01/17 03:08:48;;;;;;;8.77;6.10;;;;;;;2.71;100.00;96458.03;5071909;28;20276;-57
2022/01/17 03:11:18;;;;;;;9.50;6.10;;;;;;;2.68;100.00;96461.38;5056076;28;20259;-58
2022/01/17 03:13:44;;;;;;;9.03;6.00;;;;;;;2.66;100.00;96463.59;5072031;28;20198;-57
2022/01/17 03:16:16;;;;;;;10.13;6.07;;;;;;;2.63;100.00;96453.47;5055960;28;20259;-57
2022/01/17 03:18:44;;;;;;;10.13;6.43;;;;;;;2.68;100.00;96445.19;5055732;28;20202;-57
2022/01/17 03:21:11;;;;;;;8.20;5.73;;;;;;;2.67;100.00;96462.50;5071308;28;20230;-57
2022/01/17 03:23:38;;;;;;;8.07;5.77;;;;;;;2.59;100.00;96457.16;5071488;28;20205;-58
2022/01/17 03:26:05;;;;;;;12.10;6.87;;;;;;;2.57;100.00;96456.69;5055690;28;20198;-67
2022/01/17 03:28:30;;;;;;;9.20;6.33;;;;;;;2.55;100.00;96462.38;5055085;28;20202;-67
2022/01/17 03:30:57;;;;;;;10.67;6.80;;;;;;;2.51;100.00;96472.25;5071088;28;20217;-68
2022/01/17 03:33:22;;;;;;;9.83;6.33;;;;;;;2.50;100.00;96473.38;5055693;28;20219;-67
2022/01/17 03:35:48;;;;;;;8.90;5.67;;;;;;;2.48;100.00;96477.50;5071393;28;20200;-67
2022/01/17 03:38:16;;;;;;;11.17;5.90;;;;;;;2.49;100.00;96473.69;5071095;28;20217;-67
2022/01/17 03:40:42;;;;;;;10.93;6.83;;;;;;;2.49;100.00;96471.78;5071381;28;20216;-54
2022/01/17 03:43:08;;;;;;;9.97;6.27;;;;;;;2.50;100.00;96481.44;5071464;28;20212;-45
2022/01/17 03:45:34;;;;;;;9.40;6.27;;;;;;;2.44;100.00;96488.13;5071373;28;20174;-58
2022/01/17 03:47:59;;;;;;;7.57;5.53;;;;;;;2.44;100.00;96488.13;5071655;28;20208;-58
2022/01/17 03:50:26;;;;;;;9.93;6.10;;;;;;;2.41;100.00;96483.38;5071255;28;20228;-58
2022/01/17 03:52:51;;;;;;;10.30;6.00;;;;;;;2.43;100.00;96478.47;5071152;28;20255;-58
2022/01/17 03:55:20;;;;;;;9.13;6.10;;;;;;;2.43;100.00;96470.38;5070638;28;20201;-59
2022/01/17 03:57:46;;;;;;;9.43;6.40;;;;;;;2.42;100.00;96462.63;5070853;28;20309;-58
2022/01/17 04:00:27;;;;;;;9.00;6.03;;;;;;;2.35;100.00;96443.47;5070772;28;20225;-67
2022/01/17 04:02:54;;;;;;;11.33;6.97;;;;;;;2.30;100.00;96443.66;5071186;28;20229;-57
2022/01/17 04:05:20;;;;;;;9.57;6.23;;;;;;;2.25;100.00;96431.16;5070940;28;20263;-59
2022/01/17 04:07:46;;;;;;;10.77;6.40;;;;;;;2.23;100.00;96438.75;5071381;28;20197;-57
2022/01/17 04:10:12;;;;;;;10.30;6.60;;;;;;;2.23;100.00;96440.69;5070610;28;20299;-58
2022/01/17 04:12:38;;;;;;;9.43;6.17;;;;;;;2.24;100.00;96429.59;5070786;28;20181;-57
2022/01/17 04:15:06;;;;;;;8.43;6.50;;;;;;;2.25;100.00;96415.00;5071068;28;20212;-57
2022/01/17 04:17:31;;;;;;;12.23;6.70;;;;;;;2.26;100.00;96419.25;5070783;28;20224;-58
2022/01/17 04:20:09;;;;;;;8.27;5.93;;;;;;;2.27;100.00;96437.03;5070472;28;20289;-57
2022/01/17 04:22:40;;;;;;;9.03;6.03;;;;;;;2.33;100.00;96454.56;5070897;28;20202;-48
2022/01/17 04:25:07;;;;;;;11.20;6.30;;;;;;;2.37;100.00;96463.59;5070924;28;20198;-49
2022/01/17 04:27:33;;;;;;;9.77;5.73;;;;;;;2.36;100.00;96467.41;5070312;28;20202;-46
2022/01/17 04:29:59;;;;;;;10.43;6.30;;;;;;;2.43;100.00;96486.56;5070427;28;20217;-47
2022/01/17 04:32:24;;;;;;;10.90;6.57;;;;;;;2.46;100.00;96494.00;5070376;28;20326;-48
2022/01/17 04:34:50;;;;;;;7.93;5.73;;;;;;;2.49;100.00;96490.66;5070148;28;20240;-51
2022/01/17 04:37:15;;;;;;;9.80;6.23;;;;;;;2.52;100.00;96489.97;5070243;28;20213;-59
2022/01/17 04:39:41;;;;;;;9.83;6.03;;;;;;;2.54;100.00;96485.06;5069865;28;20206;-65
2022/01/17 04:42:12;;;;;;;9.10;6.47;;;;;;;2.56;100.00;96482.84;5070356;28;20220;-65
2022/01/17 04:47:23;;;;;;;7.77;5.70;;;;;;;2.55;100.00;96493.97;5054868;28;20205;-66
2022/01/17 04:49:49;;;;;;;11.63;6.67;;;;;;;2.56;100.00;96507.13;5070636;28;20193;-65
2022/01/17 04:52:14;;;;;;;9.73;6.37;;;;;;;2.56;100.00;96507.13;5070022;28;20197;-65
2022/01/17 04:54:43;;;;;;;10.13;6.37;;;;;;;2.57;100.00;96514.09;5069973;28;20208;-58
2022/01/17 04:57:10;;;;;;;8.10;5.90;;;;;;;2.60;100.00;96518.84;5069997;28;20213;-57
2022/01/17 04:59:36;;;;;;;9.57;5.80;;;;;;;2.60;100.00;96518.03;5070312;28;20201;-59
2022/01/17 05:02:02;;;;;;;8.10;5.70;;;;;;;2.59;100.00;96535.31;5069837;28;20276;-58
2022/01/17 05:04:27;;;;;;;8.30;6.00;;;;;;;2.64;100.00;96532.44;5054141;28;20247;-59
2022/01/17 05:06:53;;;;;;;10.47;6.17;;;;;;;2.62;100.00;96529.28;5070278;28;20189;-58
2022/01/17 05:09:18;;;;;;;10.07;6.33;;;;;;;2.67;100.00;96529.09;5069341;28;20197;-57
2022/01/17 05:11:43;;;;;;;9.67;6.10;;;;;;;2.66;100.00;96506.72;5069590;28;20288;-57
2022/01/17 05:14:09;;;;;;;9.93;6.33;;;;;;;2.62;100.00;96494.25;5070046;28;20237;-65
2022/01/17 05:16:41;;;;;;;8.97;6.07;;;;;;;2.58;100.00;96488.69;5054163;28;20279;-52
2022/01/17 05:21:50;;;;;;;8.77;6.03;;;;;;;2.54;100.00;96490.47;5054372;28;20195;-49
2022/01/17 05:24:15;;;;;;;8.23;5.80;;;;;;;2.55;100.00;96489.34;5069471;28;20221;-49
2022/01/17 05:26:41;;;;;;;9.77;5.90;;;;;;;2.57;100.00;96481.72;5069565;28;20198;-48
2022/01/17 05:29:07;;;;;;;8.27;6.20;;;;;;;2.62;100.00;96489.63;5069161;28;20205;-45
2022/01/17 05:31:32;;;;;;;11.00;6.53;;;;;;;2.68;100.00;96488.34;5069429;28;20193;-58
2022/01/17 05:33:57;;;;;;;8.40;6.23;;;;;;;2.71;100.00;96505.75;5069474;28;20201;-68
2022/01/17 05:36:23;;;;;;;9.37;5.87;;;;;;;2.70;100.00;96491.47;5069644;28;20241;-67
2022/01/17 05:38:49;;;;;;;7.70;5.43;;;;;;;2.73;100.00;96496.22;5069244;28;20189;-67
2022/01/17 05:41:14;;;;;;;9.13;5.60;;;;;;;2.74;100.00;96505.88;5069469;28;20189;-67
2022/01/17 05:43:39;;;;;;;9.90;6.30;;;;;;;2.78;100.00;96504.16;5069104;28;20197;-67
2022/01/17 05:46:05;;;;;;;8.50;5.87;;;;;;;2.75;100.00;96496.69;5068991;28;20201;-67
2022/01/17 05:48:30;;;;;;;7.60;5.30;;;;;;;2.79;100.00;96484.16;5068907;28;20202;-67
2022/01/17 05:50:55;;;;;;;11.00;6.20;;;;;;;2.80;100.00;96512.69;5069525;28;20237;-67
2022/01/17 05:53:21;;;;;;;8.00;5.40;;;;;;;2.80;100.00;96501.91;5073003;28;20194;-47
2022/01/17 05:55:46;;;;;;;8.73;5.23;;;;;;;2.82;100.00;96505.06;5073159;28;20281;-48
2022/01/17 05:58:12;;;;;;;8.90;5.77;;;;;;;2.88;100.00;96511.84;5072725;28;20300;-48
2022/01/17 06:00:38;;;;;;;8.97;6.00;;;;;;;2.90;100.00;96512.31;5072553;28;20174;-47
2022/01/17 06:03:03;;;;;;;9.77;6.23;;;;;;;2.90;100.00;96523.09;5056956;28;20221;-45
2022/01/17 06:05:28;;;;;;;8.50;5.80;;;;;;;2.98;100.00;96522.25;5072504;28;20556;-47
2022/01/17 06:07:54;;;;;;;9.43;6.33;;;;;;;2.94;100.00;96537.50;5072428;28;20300;-59
2022/01/17 06:10:19;;;;;;;9.77;5.90;;;;;;;2.99;100.00;96537.31;5072375;28;20193;-58
2022/01/17 06:12:44;;;;;;;7.57;5.70;;;;;;;3.01;100.00;96535.09;5072330;28;20193;-57
2022/01/17 06:15:10;;;;;;;10.60;5.97;;;;;;;3.00;100.00;96533.53;5072429;28;20267;-57
2022/01/17 06:17:36;;;;;;;7.90;5.40;;;;;;;3.01;100.00;96524.31;5072255;28;20394;-60
2022/01/17 06:20:02;;;;;;;9.27;5.93;;;;;;;3.03;100.00;96535.53;5072283;28;20208;-60
2022/01/17 06:22:27;;;;;;;8.40;5.30;;;;;;;3.06;100.00;96542.22;5072073;28;20198;-57
2022/01/17 06:24:53;;;;;;;8.93;5.70;;;;;;;3.03;100.00;96532.84;5072789;28;20198;-60
2022/01/17 06:27:19;;;;;;;8.60;5.83;;;;;;;3.07;100.00;96525.69;5072050;28;20266;-56
2022/01/17 06:29:45;;;;;;;8.03;5.57;;;;;;;3.04;100.00;96512.06;5071980;28;20208;-47
2022/01/17 06:32:10;;;;;;;8.93;5.60;;;;;;;3.05;100.00;96514.44;5071921;28;20178;-47
2022/01/17 06:34:35;;;;;;;9.93;5.70;;;;;;;3.04;100.00;96514.75;5072274;28;20193;-49
2022/01/17 06:37:01;;;;;;;9.53;5.30;;;;;;;3.06;100.00;96524.09;5071935;28;20206;-47
2022/01/17 06:39:26;;;;;;;7.17;4.90;;;;;;;3.07;100.00;96516.81;5071842;28;20198;-48
2022/01/17 06:41:51;;;;;;;9.47;5.60;;;;;;;3.08;100.00;96518.38;5072283;28;20204;-47
2022/01/17 06:44:17;;;;;;;10.00;5.27;;;;;;;3.10;100.00;96522.31;5072138;28;20233;-61
2022/01/17 06:46:42;;;;;;;9.50;5.37;;;;;;;3.13;100.00;96510.88;5071762;28;20201;-69
2022/01/17 06:49:08;;;;;;;8.37;5.40;;;;;;;3.11;100.00;96513.13;5071907;28;20213;-61
2022/01/17 06:51:34;;;;;;;8.13;5.10;;;;;;;3.16;100.00;96518.34;5072060;28;20198;-61
2022/01/17 06:54:00;;;;;;;7.90;5.47;;;;;;;3.16;100.00;96520.22;5072156;28;20201;-61
2022/01/17 06:56:25;;;;;;;8.87;5.70;;;;;;;3.25;100.00;96508.25;5072231;28;20194;-62
2022/01/17 06:58:50;;;;;;;10.30;6.13;;;;;;;3.19;100.00;96509.59;5071817;28;20208;-61
2022/01/17 07:01:18;;;;;;;8.67;5.60;;;;;;;3.27;100.00;96506.03;5071541;28;20217;-61
2022/01/17 07:03:44;;;;;;;8.63;5.53;;;;;;;3.24;100.00;96505.88;5071204;28;20205;-61
2022/01/17 07:06:09;;;;;;;7.73;5.10;;;;;;;3.25;100.00;96502.84;5071529;28;20194;-57
2022/01/17 07:08:35;;;;;;;18.10;10.77;;;;;;;3.23;100.00;96499.72;5071237;28;20229;-59
2022/01/17 07:11:00;;;;;;;11.17;7.43;;;;;;;3.27;100.00;96516.81;5071337;28;20206;-59
2022/01/17 07:13:25;;;;;;;8.40;5.83;;;;;;;3.31;100.00;96536.63;5071427;28;20208;-60
2022/01/17 07:15:53;;;;;;;7.57;4.93;;;;;;;3.31;100.00;96555.53;5071248;28;20198;-60
2022/01/17 07:18:19;;;;;;;8.97;5.80;;;;;;;3.35;100.00;96556.44;5071765;28;20283;-57
2022/01/17 07:20:44;;;;;;;11.13;7.60;;;;;;;3.36;100.00;96584.25;5071574;28;20202;-56
2022/01/17 07:23:09;;;;;;;15.53;9.83;;;;;;;3.38;100.00;96598.19;5072047;28;20190;-61
2022/01/17 07:25:38;;;;;;;8.87;5.30;;;;;;;3.38;100.00;96620.59;5071470;28;20201;-59
2022/01/17 07:28:08;;;;;;;7.50;5.07;;;;;;;3.42;100.00;96636.91;5071541;28;20193;-60
2022/01/17 07:30:36;;;;;;;10.03;4.93;;;;;;;3.45;100.00;96636.25;5071142;28;20205;-60
2022/01/17 07:33:03;;;;;;;8.93;5.40;;;;;;;3.46;100.00;96649.44;5070962;28;20198;-61
2022/01/17 07:35:28;;;;;;;7.00;4.93;;;;;;;3.46;100.00;96681.81;5070746;28;20194;-60
2022/01/17 07:37:53;;;;;;;7.63;5.20;;;;;;;3.47;100.00;96682.63;5071305;28;20305;-60
2022/01/17 07:40:19;;;;;;;7.67;5.33;;;;;;;3.44;100.00;96667.88;5070959;28;20190;-48
2022/01/17 07:42:44;;;;;;;8.33;5.07;;;;;;;3.50;100.00;96650.34;5071029;28;20209;-57
2022/01/17 07:45:13;;;;;;;9.03;5.57;;;;;;;3.51;100.00;96629.56;5071003;28;20205;-54
2022/01/17 07:47:43;;;;;;;8.23;5.23;;;;;;;3.55;100.00;96627.78;5055630;28;20221;-54
2022/01/17 07:50:15;;;;;;;8.60;5.13;;;;;;;3.63;100.00;96631.53;5071118;28;20194;-53
2022/01/17 07:52:41;;;;;;;6.13;4.60;;;;;;;3.68;100.00;96634.06;5070643;28;20197;-57
2022/01/17 07:55:07;;;;;;;6.43;4.70;;;;;;;3.66;100.00;96603.88;5071408;28;20194;-58
2022/01/17 07:57:32;;;;;;;7.07;5.07;;;;;;;3.70;100.00;96599.38;5070684;28;20213;-58
2022/01/17 07:59:58;;;;;;;6.83;4.63;;;;;;;3.76;100.00;96598.09;5071439;28;20174;-50
2022/01/17 08:02:23;;;;;;;6.33;4.50;;;;;;;3.70;100.00;96594.00;5070647;28;20251;-59
2022/01/17 08:04:48;;;;;;;10.87;4.77;;;;;;;3.72;100.00;96591.75;5070859;28;20205;-57
2022/01/17 08:07:15;;;;;;;8.13;5.30;;;;;;;3.69;100.00;96595.91;5071032;28;20209;-57
2022/01/17 08:09:41;;;;;;;7.20;5.10;;;;;;;3.71;100.00;96590.19;5071053;28;20205;-57
2022/01/17 08:12:08;;;;;;;8.67;5.57;;;;;;;3.73;100.00;96609.53;5070428;28;20251;-57
2022/01/17 08:14:35;;;;;;;8.07;5.27;;;;;;;3.83;100.00;96609.16;5070570;28;20681;-57
2022/01/17 08:17:01;;;;;;;8.83;5.90;;;;;;;3.88;100.00;96617.06;5070584;28;20222;-57
2022/01/17 08:19:27;;;;;;;8.90;5.03;;;;;;;3.90;100.00;96615.63;5070277;28;20190;-58
2022/01/17 08:21:52;;;;;;;7.27;4.83;;;;;;;3.91;100.00;96627.19;5070969;28;20197;-55
2022/01/17 08:24:19;;;;;;;7.50;5.07;;;;;;;3.77;100.00;96622.06;5070573;28;20189;-55
2022/01/17 08:26:44;;;;;;;9.30;5.67;;;;;;;3.75;100.00;96634.31;5070812;28;20204;-55
2022/01/17 08:29:10;;;;;;;8.10;5.53;;;;;;;3.81;100.00;96627.59;5070711;28;20288;-55
2022/01/17 08:31:36;;;;;;;8.33;5.53;;;;;;;3.78;100.00;96628.28;5070296;28;20247;-55
2022/01/17 08:34:01;;;;;;;6.93;4.90;;;;;;;3.83;100.00;96625.38;5070583;28;20201;-55
2022/01/17 08:36:27;;;;;;;7.57;5.40;;;;;;;3.84;100.00;96627.75;5070548;28;20290;-53
2022/01/17 08:38:53;;;;;;;7.97;5.53;;;;;;;3.92;100.00;96617.97;5070618;28;20193;-58
2022/01/17 08:41:19;;;;;;;7.97;5.20;;;;;;;4.00;100.00;96615.19;5070752;28;20202;-58
2022/01/17 08:43:45;;;;;;;6.97;5.10;;;;;;;4.17;100.00;96619.66;5070135;28;20185;-59
2022/01/17 08:46:10;;;;;;;8.03;5.73;;;;;;;4.20;100.00;96609.00;5069889;28;20202;-59
2022/01/17 08:48:38;;;;;;;7.00;5.40;;;;;;;4.21;100.00;96596.25;5070317;28;20217;-58
2022/01/17 08:51:03;;;;;;;7.70;5.70;;;;;;;4.25;100.00;96583.66;5070519;28;20253;-58
2022/01/17 08:53:28;;;;;;;9.87;5.80;;;;;;;4.42;100.00;96586.19;5070200;28;20194;-57
2022/01/17 08:55:54;;;;;;;6.93;5.27;;;;;;;4.48;100.00;96593.75;5070481;28;20194;-57
2022/01/17 08:58:19;;;;;;;8.70;5.63;;;;;;;4.56;100.00;96605.59;5070141;28;20278;-58
2022/01/17 09:00:45;;;;;;;8.07;5.80;;;;;;;4.71;100.00;96607.66;5070481;28;20214;-57
2022/01/17 09:03:10;;;;;;;10.87;7.47;;;;;;;4.83;100.00;96618.50;5070105;28;20208;-57
2022/01/17 09:05:36;;;;;;;10.37;5.83;;;;;;;4.91;100.00;96631.94;5070099;28;20211;-57
2022/01/17 09:08:05;;;;;;;6.53;5.00;;;;;;;4.96;100.00;96629.00;5069860;28;20200;-57
2022/01/17 09:10:30;;;;;;;6.93;5.27;;;;;;;4.88;100.00;96608.25;5069801;28;20201;-57
2022/01/17 09:12:57;;;;;;;7.30;5.40;;;;;;;4.74;100.00;96612.41;5069794;28;20209;-67
2022/01/17 09:15:23;;;;;;;9.70;5.40;;;;;;;4.77;100.00;96622.56;5069664;28;20189;-58
2022/01/17 09:17:48;;;;;;;7.13;5.20;;;;;;;4.76;100.00;96615.56;5069421;28;20271;-58
2022/01/17 09:20:13;;;;;;;9.70;5.70;;;;;;;4.66;100.00;96640.34;5069933;28;20205;-58
2022/01/17 09:22:38;;;;;;;9.30;5.80;;;;;;;4.74;100.00;96661.88;5069242;28;20198;-58
2022/01/17 09:25:06;;;;;;;7.30;5.10;;;;;;;4.92;100.00;96667.91;5070025;28;20546;-58
2022/01/17 09:27:36;;;;;;;8.07;5.37;;;;;;;4.95;100.00;96673.44;5068970;28;20190;-59
2022/01/17 09:30:04;;;;;;;10.80;6.50;;;;;;;4.98;100.00;96655.72;5069996;28;20215;-57
2022/01/17 09:32:30;;;;;;;11.63;7.23;;;;;;;5.08;100.00;96660.72;5053208;28;20214;-59
2022/01/17 09:34:55;;;;;;;7.53;5.27;;;;;;;5.04;100.00;96657.09;5069510;28;20199;-58
2022/01/17 09:37:21;;;;;;;8.13;5.40;;;;;;;4.95;100.00;96637.47;5069507;28;20223;-57
2022/01/17 09:39:46;;;;;;;6.63;4.70;;;;;;;5.10;100.00;96631.41;5069794;28;20191;-57
2022/01/17 09:42:12;;;;;;;8.67;5.20;;;;;;;5.18;100.00;96649.44;5069261;28;20232;-57
2022/01/17 09:44:38;;;;;;;7.73;5.60;;;;;;;5.39;100.00;96645.50;5069365;28;20197;-57
2022/01/17 09:47:05;;;;;;;7.57;5.23;;;;;;;5.52;100.00;96646.28;5069282;28;20198;-57
2022/01/17 09:49:36;;;;;;;7.00;4.73;;;;;;;5.62;100.00;96672.94;5069047;28;20253;-57
2022/01/17 09:52:13;;;;;;;8.43;5.33;;;;;;;5.47;100.00;96646.53;5069585;28;20289;-55
2022/01/17 09:54:42;;;;;;;6.93;5.03;;;;;;;5.45;100.00;96654.19;5069229;28;20223;-56
2022/01/17 09:57:08;;;;;;;6.43;5.17;;;;;;;5.52;100.00;96663.34;5052085;28;20307;-55
2022/01/17 09:59:36;;;;;;;7.93;5.30;;;;;;;5.30;100.00;96657.56;5069517;28;20548;-55
2022/01/17 10:02:02;;;;;;;7.50;5.23;;;;;;;5.32;100.00;96660.75;5069317;28;20250;-55
2022/01/17 10:04:29;;;;;;;6.97;4.87;;;;;;;5.38;100.00;96648.53;5053315;28;20208;-57
2022/01/17 10:06:56;;;;;;;8.00;5.40;;;;;;;5.36;100.00;96672.47;5068807;28;20202;-57
2022/01/17 10:09:24;;;;;;;6.43;4.90;;;;;;;5.41;100.00;96680.38;5069479;28;20239;-59
2022/01/17 10:12:07;;;;;;;7.63;4.70;;;;;;;5.55;100.00;96665.38;5069259;28;20245;-58
2022/01/17 10:14:37;;;;;;;6.53;4.90;;;;;;;5.57;100.00;96643.38;5069191;28;20194;-58
2022/01/17 10:17:09;;;;;;;7.23;5.20;;;;;;;5.52;100.00;96638.16;5068916;28;20217;-59
2022/01/17 10:19:36;;;;;;;6.73;4.60;;;;;;;5.55;100.00;96634.78;5069068;28;20198;-58
2022/01/17 10:22:08;;;;;;;8.93;4.83;;;;;;;5.48;100.00;96627.22;5069298;28;20249;-57
2022/01/17 10:24:46;;;;;;;6.70;4.73;;;;;;;5.32;100.00;96628.25;5068502;28;20210;-54
2022/01/17 10:35:30;;;;;;;7.50;4.87;;;;;;;5.70;100.00;96620.53;5053138;28;20221;-58
2022/01/17 10:37:56;;;;;;;7.53;4.50;;;;;;;5.59;100.00;96619.41;5051787;28;20218;-57
2022/01/17 10:40:21;;;;;;;6.93;4.67;;;;;;;5.60;100.00;96620.97;5055483;28;20207;-57
2022/01/17 10:42:48;;;;;;;8.10;4.63;;;;;;;5.58;100.00;96632.16;5072028;28;20200;-57
2022/01/17 10:45:28;;;;;;;7.47;4.60;;;;;;;5.71;100.00;96625.59;5071848;28;20233;-57
2022/01/17 10:47:57;;;;;;;5.80;4.80;;;;;;;5.74;100.00;96619.50;5072326;28;20198;-55
2022/01/17 10:50:26;;;;;;;6.73;4.30;;;;;;;5.83;100.00;96606.63;5071874;28;20198;-55
2022/01/17 10:53:01;;;;;;;6.17;4.23;;;;;;;5.84;100.00;96629.91;5071957;28;20194;-55
2022/01/17 10:55:38;;;;;;;7.97;4.60;;;;;;;6.02;100.00;96630.44;5072181;28;20185;-55
2022/01/17 10:58:09;;;;;;;7.47;4.37;;;;;;;6.14;100.00;96617.63;5071572;28;20222;-55
2022/01/17 11:00:41;;;;;;;6.83;4.50;;;;;;;6.17;100.00;96627.78;5071748;28;20208;-54
2022/01/17 11:03:10;;;;;;;6.13;4.33;;;;;;;6.03;100.00;96618.44;5071694;28;20194;-46
2022/01/17 11:05:37;;;;;;;7.43;4.40;;;;;;;5.93;100.00;96618.91;5071577;28;20226;-59
2022/01/17 11:08:02;;;;;;;5.60;4.07;;;;;;;5.79;100.00;96616.56;5071844;28;20281;-58
2022/01/17 11:10:34;;;;;;;5.47;4.00;;;;;;;5.85;100.00;96625.25;5071946;28;20295;-60
2022/01/17 11:13:02;;;;;;;6.83;4.17;;;;;;;5.91;100.00;96640.16;5072061;28;20237;-58
2022/01/17 11:15:29;;;;;;;8.80;4.07;;;;;;;6.05;100.00;96629.75;5071662;28;20194;-59
2022/01/17 11:17:57;;;;;;;7.57;3.93;;;;;;;6.04;100.00;96625.44;5071922;28;20205;-59
2022/01/17 11:20:27;;;;;;;8.27;4.10;;;;;;;5.93;100.00;96627.03;5072288;28;20298;-68
2022/01/17 11:22:56;;;;;;;4.67;3.70;;;;;;;5.85;100.00;96627.97;5071434;28;20203;-58
2022/01/17 11:25:28;;;;;;;6.13;3.67;;;;;;;5.77;100.00;96650.56;5071385;28;20235;-57
2022/01/17 11:27:55;;;;;;;7.23;3.97;;;;;;;5.72;100.00;96643.44;5071643;28;20200;-58
2022/01/17 11:30:21;;;;;;;5.07;3.70;;;;;;;5.64;100.00;96630.00;5071374;28;20208;-58
2022/01/17 11:32:49;;;;;;;7.13;3.90;;;;;;;5.66;100.00;96615.00;5071173;28;20276;-58
2022/01/17 11:35:17;;;;;;;5.10;3.77;;;;;;;5.58;100.00;96623.25;5054212;28;20209;-57
2022/01/17 11:37:58;;;;;;;7.27;3.97;;;;;;;5.70;100.00;96596.94;5055897;28;20232;-58
2022/01/17 11:40:30;;;;;;;7.20;4.13;;;;;;;5.74;100.00;96613.28;5071233;28;20629;-58
2022/01/17 11:42:56;;;;;;;7.10;4.17;;;;;;;5.84;100.00;96607.44;5070834;28;20202;-67
2022/01/17 11:45:21;;;;;;;5.30;4.17;;;;;;;5.98;100.00;96591.59;5055492;28;20644;-67
2022/01/17 11:47:56;;;;;;;8.93;4.33;;;;;;;6.05;100.00;96592.56;5054832;28;20215;-67
2022/01/17 11:50:28;;;;;;;8.03;4.10;;;;;;;6.16;100.00;96609.91;5070356;28;20199;-67
2022/01/17 11:52:55;;;;;;;6.47;4.07;;;;;;;6.11;100.00;96601.25;5054172;28;20204;-67
2022/01/17 11:55:45;;;;;;;6.97;4.17;;;;;;;6.22;100.00;96613.19;5070933;28;20250;-67